createdAt,value
2016-09-28T00:00:39.181Z,0
2016-09-28T00:01:39.158Z,0
2016-09-28T00:02:39.143Z,0
2016-09-28T00:03:39.130Z,0
2016-09-28T00:04:39.095Z,0
2016-09-28T00:05:39.085Z,0
2016-09-28T00:06:39.046Z,0
2016-09-28T00:07:39.030Z,0
2016-09-28T00:08:39.014Z,0
2016-09-28T00:09:38.967Z,0
2016-09-28T00:10:38.959Z,0
2016-09-28T00:11:38.937Z,0
2016-09-28T00:12:38.913Z,0
2016-09-28T00:13:38.887Z,0
2016-09-28T00:14:38.867Z,0
2016-09-28T00:15:38.843Z,0
2016-09-28T00:16:38.818Z,0
2016-09-28T00:17:38.792Z,0
2016-09-28T00:18:38.778Z,0
2016-09-28T00:19:38.749Z,0
2016-09-28T00:20:38.727Z,0
2016-09-28T00:21:38.709Z,0
2016-09-28T00:22:38.697Z,0
2016-09-28T00:23:38.659Z,0
2016-09-28T00:24:38.647Z,0
2016-09-28T00:25:38.618Z,0
2016-09-28T00:26:38.604Z,0
2016-09-28T00:27:38.573Z,0
2016-09-28T00:28:38.540Z,0
2016-09-28T00:29:38.820Z,0
2016-09-28T00:30:38.512Z,0
2016-09-28T00:31:38.480Z,0
2016-09-28T00:32:38.461Z,0
2016-09-28T00:33:38.434Z,0
2016-09-28T00:34:38.410Z,0
2016-09-28T00:35:38.381Z,0
2016-09-28T00:36:38.364Z,0
2016-09-28T00:37:38.361Z,0
2016-09-28T00:38:38.323Z,0
2016-09-28T00:39:38.299Z,0
2016-09-28T00:40:38.265Z,0
2016-09-28T00:41:38.245Z,0
2016-09-28T00:42:38.229Z,0
2016-09-28T00:43:38.217Z,0
2016-09-28T00:44:38.178Z,0
2016-09-28T00:45:38.157Z,0
2016-09-28T00:46:38.143Z,0
2016-09-28T00:47:38.110Z,0
2016-09-28T00:48:38.136Z,0
2016-09-28T00:49:38.061Z,0
2016-09-28T00:50:38.060Z,0
2016-09-28T00:51:38.020Z,0
2016-09-28T00:52:37.996Z,0
2016-09-28T00:53:37.974Z,0
2016-09-28T00:54:37.950Z,0
2016-09-28T00:55:37.932Z,0
2016-09-28T00:56:37.913Z,0
2016-09-28T00:57:37.878Z,0
2016-09-28T00:58:37.868Z,0
2016-09-28T00:59:37.837Z,0
2016-09-28T01:00:37.810Z,0
2016-09-28T01:01:37.791Z,0
2016-09-28T01:02:37.760Z,0
2016-09-28T01:03:37.745Z,0
2016-09-28T01:04:37.712Z,0
2016-09-28T01:05:37.702Z,0
2016-09-28T01:06:37.685Z,0
2016-09-28T01:07:37.657Z,0
2016-09-28T01:08:37.624Z,0
2016-09-28T01:09:37.604Z,0
2016-09-28T01:10:37.582Z,0
2016-09-28T01:11:37.567Z,0
2016-09-28T01:12:37.543Z,0
2016-09-28T01:13:37.520Z,0
2016-09-28T01:14:37.500Z,0
2016-09-28T01:15:37.466Z,0
2016-09-28T01:16:37.449Z,0
2016-09-28T01:17:37.417Z,0
2016-09-28T01:18:37.394Z,0
2016-09-28T01:19:37.372Z,0
2016-09-28T01:20:37.353Z,0
2016-09-28T01:21:37.330Z,0
2016-09-28T01:22:37.317Z,0
2016-09-28T01:23:37.278Z,0
2016-09-28T01:24:37.266Z,0
2016-09-28T01:25:37.236Z,0
2016-09-28T01:26:37.214Z,0
2016-09-28T01:27:37.191Z,0
2016-09-28T01:28:37.171Z,0
2016-09-28T01:29:37.157Z,0
2016-09-28T01:30:37.145Z,0
2016-09-28T01:31:37.114Z,0
2016-09-28T01:32:37.080Z,0
2016-09-28T01:33:37.056Z,0
2016-09-28T01:34:37.031Z,0
2016-09-28T01:35:37.020Z,0
2016-09-28T01:36:36.989Z,0
2016-09-28T01:37:36.960Z,0
2016-09-28T01:38:36.943Z,0
2016-09-28T01:39:36.911Z,0
2016-09-28T01:40:36.888Z,0
2016-09-28T01:41:36.869Z,0
2016-09-28T01:42:36.847Z,0
2016-09-28T01:43:36.818Z,0
2016-09-28T01:44:36.800Z,0
2016-09-28T01:45:36.775Z,0
2016-09-28T01:46:36.761Z,0
2016-09-28T01:47:36.731Z,0
2016-09-28T01:48:36.708Z,0
2016-09-28T01:49:36.695Z,0
2016-09-28T01:50:36.671Z,0
2016-09-28T01:51:36.635Z,0
2016-09-28T01:52:36.617Z,0
2016-09-28T01:53:36.595Z,0
2016-09-28T01:54:36.579Z,0
2016-09-28T01:55:36.557Z,0
2016-09-28T01:56:36.530Z,0
2016-09-28T01:57:36.499Z,0
2016-09-28T01:58:36.475Z,0
2016-09-28T01:59:36.462Z,0
2016-09-28T02:00:36.438Z,0
2016-09-28T02:01:36.416Z,0
2016-09-28T02:02:36.394Z,0
2016-09-28T02:03:36.374Z,0
2016-09-28T02:04:36.353Z,0
2016-09-28T02:05:36.330Z,0
2016-09-28T02:06:36.304Z,0
2016-09-28T02:07:36.280Z,0
2016-09-28T02:08:36.261Z,0
2016-09-28T02:09:36.244Z,0
2016-09-28T02:10:36.228Z,0
2016-09-28T02:11:36.193Z,0
2016-09-28T02:12:36.177Z,0
2016-09-28T02:13:36.152Z,0
2016-09-28T02:14:36.123Z,0
2016-09-28T02:15:36.101Z,0
2016-09-28T02:16:36.080Z,0
2016-09-28T02:17:36.059Z,0
2016-09-28T02:18:36.026Z,0
2016-09-28T02:19:36.015Z,0
2016-09-28T02:20:35.997Z,0
2016-09-28T02:21:35.968Z,0
2016-09-28T02:22:35.951Z,0
2016-09-28T02:23:35.922Z,0
2016-09-28T02:24:35.899Z,0
2016-09-28T02:25:35.889Z,0
2016-09-28T02:26:35.861Z,0
2016-09-28T02:27:35.843Z,0
2016-09-28T02:28:35.845Z,0
2016-09-28T02:29:35.806Z,0
2016-09-28T02:30:35.772Z,0
2016-09-28T02:31:35.755Z,0
2016-09-28T02:32:35.727Z,0
2016-09-28T02:33:35.708Z,0
2016-09-28T02:34:35.686Z,0
2016-09-28T02:35:35.663Z,0
2016-09-28T02:36:35.640Z,0
2016-09-28T02:37:35.612Z,0
2016-09-28T02:38:35.598Z,0
2016-09-28T02:39:35.583Z,0
2016-09-28T02:40:35.553Z,0
2016-09-28T02:41:35.523Z,0
2016-09-28T02:42:35.505Z,0
2016-09-28T02:43:35.506Z,0
2016-09-28T02:44:35.532Z,0
2016-09-28T02:45:35.444Z,0
2016-09-28T02:46:35.416Z,0
2016-09-28T02:47:35.415Z,0
2016-09-28T02:48:35.376Z,0
2016-09-28T02:49:35.358Z,0
2016-09-28T02:50:35.339Z,0
2016-09-28T02:51:35.335Z,0
2016-09-28T02:52:35.294Z,0
2016-09-28T02:53:35.262Z,0
2016-09-28T02:54:35.247Z,0
2016-09-28T02:55:35.226Z,0
2016-09-28T02:56:35.199Z,0
2016-09-28T02:57:35.184Z,0
2016-09-28T02:58:35.155Z,0
2016-09-28T02:59:35.126Z,0
2016-09-28T03:00:35.120Z,0
2016-09-28T03:01:35.092Z,0
2016-09-28T03:02:35.073Z,0
2016-09-28T03:03:35.047Z,0
2016-09-28T03:04:35.028Z,0
2016-09-28T03:05:35.001Z,0
2016-09-28T03:06:34.978Z,0
2016-09-28T03:07:34.954Z,0
2016-09-28T03:08:34.934Z,0
2016-09-28T03:09:34.908Z,0
2016-09-28T03:10:34.886Z,0
2016-09-28T03:11:34.870Z,0
2016-09-28T03:12:34.840Z,0
2016-09-28T03:13:34.812Z,0
2016-09-28T03:14:34.800Z,0
2016-09-28T03:15:34.786Z,0
2016-09-28T03:16:34.755Z,0
2016-09-28T03:17:34.747Z,0
2016-09-28T03:18:34.716Z,0
2016-09-28T03:19:34.687Z,0
2016-09-28T03:20:34.667Z,0
2016-09-28T03:21:34.641Z,0
2016-09-28T03:22:34.682Z,0
2016-09-28T03:23:34.598Z,0
2016-09-28T03:24:34.579Z,0
2016-09-28T03:25:34.562Z,0
2016-09-28T03:26:34.540Z,0
2016-09-28T03:27:34.511Z,0
2016-09-28T03:28:34.494Z,0
2016-09-28T03:29:34.463Z,0
2016-09-28T03:30:34.436Z,0
2016-09-28T03:31:34.422Z,0
2016-09-28T03:32:34.403Z,0
2016-09-28T03:33:34.380Z,0
2016-09-28T03:34:34.362Z,0
2016-09-28T03:35:34.341Z,0
2016-09-28T03:36:34.317Z,0
2016-09-28T03:37:34.283Z,0
2016-09-28T03:38:34.267Z,0
2016-09-28T03:39:34.249Z,0
2016-09-28T03:40:34.233Z,0
2016-09-28T03:41:34.195Z,0
2016-09-28T03:42:34.179Z,0
2016-09-28T03:43:34.161Z,0
2016-09-28T03:44:34.184Z,0
2016-09-28T03:45:34.131Z,0
2016-09-28T03:46:34.112Z,0
2016-09-28T03:47:34.068Z,0
2016-09-28T03:48:34.051Z,0
2016-09-28T03:49:34.026Z,0
2016-09-28T03:50:33.998Z,0
2016-09-28T03:51:33.978Z,0
2016-09-28T03:52:33.958Z,0
2016-09-28T03:53:33.944Z,0
2016-09-28T03:54:33.919Z,0
2016-09-28T03:55:33.886Z,0
2016-09-28T03:56:33.872Z,0
2016-09-28T03:57:33.847Z,0
2016-09-28T03:58:33.823Z,0
2016-09-28T03:59:33.806Z,0
2016-09-28T04:00:33.785Z,0
2016-09-28T04:01:33.749Z,0
2016-09-28T04:02:33.737Z,0
2016-09-28T04:03:33.703Z,0
2016-09-28T04:04:33.689Z,0
2016-09-28T04:05:33.670Z,0
2016-09-28T04:06:33.636Z,0
2016-09-28T04:07:33.616Z,0
2016-09-28T04:08:33.616Z,0
2016-09-28T04:09:33.574Z,0
2016-09-28T04:10:33.557Z,0
2016-09-28T04:11:33.535Z,0
2016-09-28T04:12:33.516Z,0
2016-09-28T04:13:33.491Z,0
2016-09-28T04:14:33.466Z,0
2016-09-28T04:15:33.442Z,0
2016-09-28T04:16:33.435Z,0
2016-09-28T04:17:33.407Z,0
2016-09-28T04:18:33.374Z,0
2016-09-28T04:19:33.373Z,0
2016-09-28T04:20:33.333Z,0
2016-09-28T04:21:33.314Z,0
2016-09-28T04:22:33.291Z,0
2016-09-28T04:23:33.268Z,0
2016-09-28T04:24:33.251Z,0
2016-09-28T04:25:33.221Z,0
2016-09-28T04:26:33.205Z,0
2016-09-28T04:27:33.170Z,0
2016-09-28T04:28:33.159Z,0
2016-09-28T04:29:33.133Z,0
2016-09-28T04:30:33.413Z,0
2016-09-28T04:31:33.116Z,0
2016-09-28T04:32:33.060Z,0
2016-09-28T04:33:33.049Z,0
2016-09-28T04:34:33.023Z,0
2016-09-28T04:35:33.005Z,0
2016-09-28T04:36:32.979Z,0
2016-09-28T04:37:32.962Z,0
2016-09-28T04:38:32.927Z,0
2016-09-28T04:39:32.913Z,0
2016-09-28T04:40:32.896Z,0
2016-09-28T04:41:32.878Z,0
2016-09-28T04:42:32.849Z,0
2016-09-28T04:43:32.830Z,0
2016-09-28T04:44:32.802Z,0
2016-09-28T04:45:32.785Z,0
2016-09-28T04:46:32.762Z,0
2016-09-28T04:47:32.743Z,0
2016-09-28T04:48:32.713Z,0
2016-09-28T04:49:32.702Z,0
2016-09-28T04:50:32.669Z,0
2016-09-28T04:51:32.646Z,0
2016-09-28T04:52:32.627Z,0
2016-09-28T04:53:32.595Z,0
2016-09-28T04:54:32.580Z,0
2016-09-28T04:55:32.558Z,0
2016-09-28T04:56:32.541Z,0
2016-09-28T04:57:32.517Z,0
2016-09-28T04:58:32.503Z,0
2016-09-28T04:59:32.476Z,0
2016-09-28T05:00:32.449Z,0
2016-09-28T05:01:32.428Z,0
2016-09-28T05:02:32.407Z,0
2016-09-28T05:03:32.390Z,0
2016-09-28T05:04:32.366Z,0
2016-09-28T05:05:32.342Z,0
2016-09-28T05:06:32.310Z,0
2016-09-28T05:07:32.289Z,0
2016-09-28T05:08:32.271Z,0
2016-09-28T05:09:32.547Z,0
2016-09-28T05:10:32.227Z,0
2016-09-28T05:11:32.202Z,0
2016-09-28T05:12:32.187Z,0
2016-09-28T05:13:32.163Z,0
2016-09-28T05:14:32.132Z,0
2016-09-28T05:15:32.109Z,5
2016-09-28T05:16:32.097Z,5
2016-09-28T05:17:32.072Z,5
2016-09-28T05:18:32.039Z,5
2016-09-28T05:19:32.022Z,5
2016-09-28T05:20:32.000Z,5
2016-09-28T05:21:31.974Z,10
2016-09-28T05:22:31.973Z,10
2016-09-28T05:23:31.932Z,10
2016-09-28T05:24:31.914Z,10
2016-09-28T05:25:31.892Z,10
2016-09-28T05:26:31.865Z,15
2016-09-28T05:27:31.841Z,15
2016-09-28T05:28:31.829Z,15
2016-09-28T05:29:31.807Z,15
2016-09-28T05:30:31.983Z,20
2016-09-28T05:31:31.757Z,20
2016-09-28T05:32:31.737Z,20
2016-09-28T05:33:31.710Z,20
2016-09-28T05:34:31.693Z,20
2016-09-28T05:35:31.662Z,20
2016-09-28T05:36:31.648Z,20
2016-09-28T05:37:31.625Z,25
2016-09-28T05:38:31.601Z,25
2016-09-28T05:39:31.571Z,30
2016-09-28T05:40:31.567Z,30
2016-09-28T05:41:31.530Z,35
2016-09-28T05:42:31.507Z,35
2016-09-28T05:43:31.495Z,35
2016-09-28T05:44:31.465Z,40
2016-09-28T05:45:31.444Z,45
2016-09-28T05:46:31.428Z,50
2016-09-28T05:47:31.404Z,55
2016-09-28T05:48:31.380Z,65
2016-09-28T05:49:31.359Z,70
2016-09-28T05:50:31.330Z,70
2016-09-28T05:51:31.310Z,70
2016-09-28T05:52:31.290Z,70
2016-09-28T05:53:31.270Z,75
2016-09-28T05:54:31.258Z,80
2016-09-28T05:55:31.527Z,85
2016-09-28T05:56:31.202Z,95
2016-09-28T05:57:31.189Z,100
2016-09-28T05:58:31.156Z,95
2016-09-28T05:59:31.150Z,95
2016-09-28T06:00:31.112Z,100
2016-09-28T06:01:31.090Z,105
2016-09-28T06:02:31.080Z,105
2016-09-28T06:03:31.058Z,115
2016-09-28T06:04:31.037Z,115
2016-09-28T06:05:31.015Z,115
2016-09-28T06:06:30.988Z,120
2016-09-28T06:07:30.962Z,135
2016-09-28T06:08:30.939Z,150
2016-09-28T06:09:30.916Z,160
2016-09-28T06:10:30.896Z,155
2016-09-28T06:11:30.882Z,165
2016-09-28T06:12:30.871Z,160
2016-09-28T06:13:30.844Z,165
2016-09-28T06:14:30.812Z,175
2016-09-28T06:15:32.188Z,185
2016-09-28T06:16:30.795Z,175
2016-09-28T06:17:30.767Z,175
2016-09-28T06:18:30.729Z,190
2016-09-28T06:19:30.717Z,190
2016-09-28T06:20:30.712Z,195
2016-09-28T06:21:30.672Z,210
2016-09-28T06:22:30.654Z,225
2016-09-28T06:23:30.637Z,215
2016-09-28T06:24:30.610Z,220
2016-09-28T06:25:30.588Z,210
2016-09-28T06:26:30.571Z,205
2016-09-28T06:27:30.541Z,200
2016-09-28T06:28:30.527Z,200
2016-09-28T06:29:30.505Z,200
2016-09-28T06:30:30.480Z,200
2016-09-28T06:31:30.531Z,210
2016-09-28T06:32:30.441Z,225
2016-09-28T06:33:30.429Z,235
2016-09-28T06:34:30.406Z,240
2016-09-28T06:35:30.388Z,235
2016-09-28T06:36:30.362Z,230
2016-09-28T06:37:30.354Z,230
2016-09-28T06:38:30.323Z,230
2016-09-28T06:39:30.297Z,230
2016-09-28T06:40:30.282Z,225
2016-09-28T06:41:30.571Z,220
2016-09-28T06:42:30.237Z,210
2016-09-28T06:43:30.232Z,220
2016-09-28T06:44:30.204Z,230
2016-09-28T06:45:30.175Z,255
2016-09-28T06:46:30.159Z,280
2016-09-28T06:47:30.144Z,275
2016-09-28T06:48:30.111Z,295
2016-09-28T06:49:30.108Z,265
2016-09-28T06:50:30.069Z,200
2016-09-28T06:51:30.072Z,180
2016-09-28T06:52:30.027Z,165
2016-09-28T06:53:30.016Z,150
2016-09-28T06:54:29.990Z,170
2016-09-28T06:55:29.979Z,225
2016-09-28T06:56:29.958Z,265
2016-09-28T06:57:29.938Z,285
2016-09-28T06:58:29.910Z,260
2016-09-28T06:59:29.891Z,265
2016-09-28T07:00:29.877Z,280
2016-09-28T07:01:29.854Z,335
2016-09-28T07:02:29.834Z,370
2016-09-28T07:03:29.817Z,325
2016-09-28T07:04:29.800Z,305
2016-09-28T07:05:29.775Z,270
2016-09-28T07:06:29.760Z,240
2016-09-28T07:07:29.723Z,205
2016-09-28T07:08:29.713Z,215
2016-09-28T07:09:29.694Z,235
2016-09-28T07:10:29.674Z,235
2016-09-28T07:11:29.656Z,250
2016-09-28T07:12:29.643Z,265
2016-09-28T07:13:29.615Z,275
2016-09-28T07:14:29.602Z,265
2016-09-28T07:15:29.570Z,250
2016-09-28T07:16:29.549Z,235
2016-09-28T07:17:29.531Z,240
2016-09-28T07:18:29.520Z,240
2016-09-28T07:19:29.495Z,270
2016-09-28T07:20:29.473Z,255
2016-09-28T07:21:29.456Z,225
2016-09-28T07:22:29.439Z,215
2016-09-28T07:23:30.115Z,210
2016-09-28T07:24:29.428Z,210
2016-09-28T07:25:29.374Z,205
2016-09-28T07:26:29.360Z,210
2016-09-28T07:27:29.337Z,200
2016-09-28T07:28:29.327Z,200
2016-09-28T07:29:29.301Z,205
2016-09-28T07:30:29.294Z,230
2016-09-28T07:31:29.258Z,230
2016-09-28T07:32:29.242Z,195
2016-09-28T07:33:29.214Z,200
2016-09-28T07:34:29.196Z,205
2016-09-28T07:35:29.190Z,190
2016-09-28T07:36:29.155Z,230
2016-09-28T07:37:29.133Z,230
2016-09-28T07:38:29.122Z,245
2016-09-28T07:39:29.100Z,220
2016-09-28T07:40:29.097Z,200
2016-09-28T07:41:29.057Z,195
2016-09-28T07:42:29.041Z,205
2016-09-28T07:43:29.029Z,225
2016-09-28T07:44:28.993Z,265
2016-09-28T07:45:28.980Z,280
2016-09-28T07:46:28.954Z,315
2016-09-28T07:47:28.962Z,325
2016-09-28T07:48:28.918Z,305
2016-09-28T07:49:28.899Z,300
2016-09-28T07:50:28.881Z,310
2016-09-28T07:51:28.849Z,335
2016-09-28T07:52:28.841Z,320
2016-09-28T07:53:28.819Z,360
2016-09-28T07:54:28.802Z,445
2016-09-28T07:55:28.779Z,470
2016-09-28T07:56:28.762Z,415
2016-09-28T07:57:28.743Z,450
2016-09-28T07:58:28.718Z,510
2016-09-28T07:59:28.702Z,540
2016-09-28T08:00:28.678Z,510
2016-09-28T08:01:28.661Z,495
2016-09-28T08:02:28.640Z,470
2016-09-28T08:03:28.614Z,520
2016-09-28T08:04:28.630Z,610
2016-09-28T08:05:28.584Z,615
2016-09-28T08:06:28.561Z,610
2016-09-28T08:07:28.543Z,745
2016-09-28T08:08:28.512Z,755
2016-09-28T08:09:28.505Z,675
2016-09-28T08:10:28.485Z,695
2016-09-28T08:11:28.460Z,590
2016-09-28T08:12:28.458Z,565
2016-09-28T08:13:28.420Z,580
2016-09-28T08:14:28.413Z,705
2016-09-28T08:15:28.394Z,865
2016-09-28T08:16:28.376Z,605
2016-09-28T08:17:28.907Z,610
2016-09-28T08:18:28.333Z,650
2016-09-28T08:19:28.310Z,690
2016-09-28T08:20:28.291Z,720
2016-09-28T08:21:28.282Z,680
2016-09-28T08:22:28.263Z,765
2016-09-28T08:23:28.230Z,740
2016-09-28T08:24:29.755Z,745
2016-09-28T08:25:28.205Z,680
2016-09-28T08:26:28.183Z,665
2016-09-28T08:27:28.165Z,680
2016-09-28T08:28:28.151Z,650
2016-09-28T08:29:28.128Z,625
2016-09-28T08:30:28.121Z,605
2016-09-28T08:31:28.095Z,610
2016-09-28T08:32:28.066Z,565
2016-09-28T08:33:28.067Z,510
2016-09-28T08:34:28.034Z,490
2016-09-28T08:35:28.014Z,495
2016-09-28T08:36:28.062Z,475
2016-09-28T08:37:28.009Z,475
2016-09-28T08:38:27.973Z,455
2016-09-28T08:39:27.946Z,455
2016-09-28T08:40:27.936Z,490
2016-09-28T08:41:27.907Z,450
2016-09-28T08:42:27.897Z,445
2016-09-28T08:43:27.899Z,440
2016-09-28T08:44:27.860Z,410
2016-09-28T08:45:27.862Z,375
2016-09-28T08:46:27.816Z,390
2016-09-28T08:47:27.810Z,415
2016-09-28T08:48:27.779Z,465
2016-09-28T08:49:27.768Z,455
2016-09-28T08:50:27.752Z,495
2016-09-28T08:51:27.728Z,565
2016-09-28T08:52:27.721Z,625
2016-09-28T08:53:27.694Z,685
2016-09-28T08:54:27.681Z,590
2016-09-28T08:55:27.649Z,450
2016-09-28T08:56:27.625Z,415
2016-09-28T08:57:27.614Z,480
2016-09-28T08:58:27.604Z,525
2016-09-28T08:59:27.589Z,610
2016-09-28T09:00:27.646Z,630
2016-09-28T09:01:27.554Z,625
2016-09-28T09:02:27.522Z,625
2016-09-28T09:03:27.511Z,665
2016-09-28T09:04:27.488Z,665
2016-09-28T09:05:27.469Z,650
2016-09-28T09:06:27.461Z,690
2016-09-28T09:07:27.433Z,740
2016-09-28T09:08:27.420Z,775
2016-09-28T09:09:27.399Z,765
2016-09-28T09:10:27.376Z,815
2016-09-28T09:11:27.369Z,830
2016-09-28T09:12:27.347Z,850
2016-09-28T09:13:27.349Z,830
2016-09-28T09:14:27.305Z,950
2016-09-28T09:15:27.290Z,820
2016-09-28T09:16:27.270Z,600
2016-09-28T09:17:27.243Z,560
2016-09-28T09:18:27.239Z,510
2016-09-28T09:19:27.220Z,460
2016-09-28T09:20:28.047Z,485
2016-09-28T09:21:27.597Z,410
2016-09-28T09:22:27.999Z,370
2016-09-28T09:23:28.359Z,330
2016-09-28T09:24:28.054Z,320
2016-09-28T09:25:28.150Z,340
2016-09-28T09:26:27.600Z,310
2016-09-28T09:27:28.154Z,345
2016-09-28T09:28:27.808Z,345
2016-09-28T09:29:28.069Z,360
2016-09-28T09:30:27.043Z,485
2016-09-28T09:31:26.999Z,615
2016-09-28T09:32:26.981Z,780
2016-09-28T09:33:26.963Z,655
2016-09-28T09:34:26.969Z,710
2016-09-28T09:35:27.304Z,785
2016-09-28T09:36:26.910Z,855
2016-09-28T09:37:26.894Z,900
2016-09-28T09:38:26.873Z,960
2016-09-28T09:39:26.847Z,990
2016-09-28T09:40:26.842Z,965
2016-09-28T09:41:26.817Z,1005
2016-09-28T09:42:26.797Z,1020
2016-09-28T09:43:26.782Z,1195
2016-09-28T09:44:26.751Z,1135
2016-09-28T09:45:26.735Z,1220
2016-09-28T09:46:26.729Z,1270
2016-09-28T09:47:26.706Z,1125
2016-09-28T09:48:26.693Z,1085
2016-09-28T09:49:26.678Z,1125
2016-09-28T09:50:26.661Z,1150
2016-09-28T09:51:26.649Z,1190
2016-09-28T09:52:26.625Z,1020
2016-09-28T09:53:26.606Z,940
2016-09-28T09:54:26.596Z,950
2016-09-28T09:55:26.573Z,995
2016-09-28T09:56:26.562Z,1000
2016-09-28T09:57:26.538Z,1040
2016-09-28T09:58:26.524Z,810
2016-09-28T09:59:26.860Z,615
2016-09-28T10:00:26.564Z,645
2016-09-28T10:01:26.474Z,790
2016-09-28T10:02:26.460Z,625
2016-09-28T10:03:26.456Z,655
2016-09-28T10:04:26.428Z,705
2016-09-28T10:05:26.411Z,655
2016-09-28T10:06:26.386Z,760
2016-09-28T10:07:26.367Z,780
2016-09-28T10:08:26.365Z,750
2016-09-28T10:09:26.642Z,705
2016-09-28T10:10:26.320Z,735
2016-09-28T10:11:26.312Z,695
2016-09-28T10:12:26.281Z,660
2016-09-28T10:13:26.265Z,640
2016-09-28T10:14:26.245Z,615
2016-09-28T10:15:26.233Z,605
2016-09-28T10:16:26.226Z,625
2016-09-28T10:17:26.205Z,610
2016-09-28T10:18:26.189Z,630
2016-09-28T10:19:26.170Z,705
2016-09-28T10:20:26.154Z,890
2016-09-28T10:21:26.217Z,870
2016-09-28T10:22:26.111Z,980
2016-09-28T10:23:26.103Z,1030
2016-09-28T10:24:26.092Z,1080
2016-09-28T10:25:26.072Z,1075
2016-09-28T10:26:26.061Z,1050
2016-09-28T10:27:26.033Z,1020
2016-09-28T10:28:26.018Z,955
2016-09-28T10:29:26.025Z,950
2016-09-28T10:30:25.983Z,955
2016-09-28T10:31:26.203Z,910
2016-09-28T10:32:25.968Z,865
2016-09-28T10:33:26.607Z,835
2016-09-28T10:34:25.920Z,830
2016-09-28T10:35:25.916Z,785
2016-09-28T10:36:25.873Z,805
2016-09-28T10:37:25.981Z,870
2016-09-28T10:38:27.423Z,840
2016-09-28T10:39:25.825Z,880
2016-09-28T10:40:25.876Z,880
2016-09-28T10:41:25.798Z,855
2016-09-28T10:42:26.197Z,850
2016-09-28T10:43:25.765Z,860
2016-09-28T10:44:25.746Z,860
2016-09-28T10:45:25.725Z,895
2016-09-28T10:46:25.734Z,960
2016-09-28T10:47:25.695Z,985
2016-09-28T10:48:25.676Z,970
2016-09-28T10:49:25.679Z,955
2016-09-28T10:50:25.777Z,830
2016-09-28T10:51:28.294Z,785
2016-09-28T10:52:28.505Z,770
2016-09-28T10:53:27.523Z,775
2016-09-28T10:54:27.157Z,775
2016-09-28T10:55:25.567Z,790
2016-09-28T10:56:25.569Z,815
2016-09-28T10:57:25.546Z,815
2016-09-28T10:58:25.510Z,820
2016-09-28T10:59:25.498Z,815
2016-09-28T11:00:25.485Z,850
2016-09-28T11:01:25.480Z,865
2016-09-28T11:02:25.449Z,870
2016-09-28T11:03:25.430Z,880
2016-09-28T11:04:25.427Z,870
2016-09-28T11:05:25.396Z,915
2016-09-28T11:06:25.384Z,970
2016-09-28T11:07:25.367Z,1025
2016-09-28T11:08:25.361Z,960
2016-09-28T11:09:25.331Z,955
2016-09-28T11:10:25.308Z,955
2016-09-28T11:11:25.295Z,935
2016-09-28T11:12:25.274Z,1010
2016-09-28T11:13:25.272Z,995
2016-09-28T11:14:25.245Z,935
2016-09-28T11:15:25.235Z,945
2016-09-28T11:16:25.211Z,970
2016-09-28T11:17:25.192Z,970
2016-09-28T11:18:25.275Z,965
2016-09-28T11:19:25.166Z,945
2016-09-28T11:20:25.154Z,1010
2016-09-28T11:21:25.140Z,970
2016-09-28T11:22:25.114Z,935
2016-09-28T11:23:25.097Z,935
2016-09-28T11:24:25.082Z,915
2016-09-28T11:25:25.074Z,920
2016-09-28T11:26:25.062Z,910
2016-09-28T11:27:25.068Z,905
2016-09-28T11:28:25.022Z,915
2016-09-28T11:29:24.999Z,840
2016-09-28T11:30:24.988Z,845
2016-09-28T11:31:24.977Z,910
2016-09-28T11:32:24.955Z,975
2016-09-28T11:33:24.951Z,945
2016-09-28T11:34:24.940Z,950
2016-09-28T11:35:24.907Z,985
2016-09-28T11:36:24.892Z,915
2016-09-28T11:37:24.952Z,910
2016-09-28T11:38:25.881Z,875
2016-09-28T11:39:24.847Z,900
2016-09-28T11:40:24.841Z,890
2016-09-28T11:41:24.822Z,905
2016-09-28T11:42:25.144Z,915
2016-09-28T11:43:24.794Z,910
2016-09-28T11:44:24.778Z,920
2016-09-28T11:45:24.759Z,945
2016-09-28T11:46:24.740Z,935
2016-09-28T11:47:24.718Z,920
2016-09-28T11:48:24.708Z,950
2016-09-28T11:49:24.709Z,980
2016-09-28T11:50:24.683Z,975
2016-09-28T11:51:24.653Z,970
2016-09-28T11:52:24.653Z,985
2016-09-28T11:53:24.621Z,985
2016-09-28T11:54:24.617Z,990
2016-09-28T11:55:24.681Z,985
2016-09-28T11:56:24.603Z,975
2016-09-28T11:57:24.597Z,975
2016-09-28T11:58:24.557Z,980
2016-09-28T11:59:24.543Z,980
2016-09-28T12:00:24.522Z,990
2016-09-28T12:01:24.506Z,995
2016-09-28T12:02:24.494Z,1000
2016-09-28T12:03:24.478Z,1000
2016-09-28T12:04:24.469Z,1015
2016-09-28T12:05:24.450Z,1025
2016-09-28T12:06:24.437Z,1035
2016-09-28T12:07:24.723Z,1040
2016-09-28T12:08:24.404Z,1030
2016-09-28T12:09:24.392Z,1035
2016-09-28T12:10:24.372Z,1030
2016-09-28T12:11:24.356Z,1025
2016-09-28T12:12:24.347Z,1025
2016-09-28T12:13:24.322Z,1035
2016-09-28T12:14:24.302Z,1040
2016-09-28T12:15:24.298Z,1025
2016-09-28T12:16:24.282Z,1025
2016-09-28T12:17:24.264Z,1015
2016-09-28T12:18:24.247Z,1010
2016-09-28T12:19:24.244Z,995
2016-09-28T12:20:24.213Z,980
2016-09-28T12:21:24.201Z,980
2016-09-28T12:22:24.191Z,970
2016-09-28T12:23:24.177Z,950
2016-09-28T12:24:25.116Z,920
2016-09-28T12:25:24.151Z,905
2016-09-28T12:26:24.151Z,915
2016-09-28T12:27:24.130Z,910
2016-09-28T12:28:24.105Z,910
2016-09-28T12:29:24.085Z,910
2016-09-28T12:30:24.072Z,910
2016-09-28T12:31:24.066Z,905
2016-09-28T12:32:24.112Z,895
2016-09-28T12:33:24.030Z,885
2016-09-28T12:34:24.021Z,870
2016-09-28T12:35:24.006Z,865
2016-09-28T12:36:24.173Z,865
2016-09-28T12:37:23.979Z,855
2016-09-28T12:38:23.946Z,855
2016-09-28T12:39:23.930Z,840
2016-09-28T12:40:23.910Z,830
2016-09-28T12:41:23.901Z,810
2016-09-28T12:42:23.888Z,790
2016-09-28T12:43:24.199Z,765
2016-09-28T12:44:23.857Z,750
2016-09-28T12:45:23.856Z,740
2016-09-28T12:46:24.123Z,730
2016-09-28T12:47:23.809Z,705
2016-09-28T12:48:23.807Z,695
2016-09-28T12:49:23.791Z,685
2016-09-28T12:50:23.768Z,690
2016-09-28T12:51:23.773Z,710
2016-09-28T12:52:23.738Z,760
2016-09-28T12:53:23.720Z,770
2016-09-28T12:54:23.707Z,795
2016-09-28T12:55:23.713Z,815
2016-09-28T12:56:23.672Z,820
2016-09-28T12:57:23.670Z,845
2016-09-28T12:58:23.652Z,860
2016-09-28T12:59:23.623Z,840
2016-09-28T13:00:23.618Z,840
2016-09-28T13:01:23.599Z,850
2016-09-28T13:02:23.581Z,860
2016-09-28T13:03:23.560Z,860
2016-09-28T13:04:23.549Z,875
2016-09-28T13:05:23.530Z,895
2016-09-28T13:06:23.827Z,910
2016-09-28T13:07:23.498Z,905
2016-09-28T13:08:23.487Z,905
2016-09-28T13:09:23.464Z,920
2016-09-28T13:10:23.465Z,920
2016-09-28T13:11:23.445Z,915
2016-09-28T13:12:23.425Z,920
2016-09-28T13:13:23.421Z,910
2016-09-28T13:14:23.411Z,920
2016-09-28T13:15:23.391Z,930
2016-09-28T13:16:23.364Z,925
2016-09-28T13:17:23.349Z,920
2016-09-28T13:18:23.345Z,930
2016-09-28T13:19:23.330Z,905
2016-09-28T13:20:23.322Z,900
2016-09-28T13:21:23.392Z,895
2016-09-28T13:22:23.300Z,885
2016-09-28T13:23:23.261Z,870
2016-09-28T13:24:23.252Z,855
2016-09-28T13:25:23.260Z,840
2016-09-28T13:26:23.514Z,825
2016-09-28T13:27:23.213Z,815
2016-09-28T13:28:23.210Z,810
2016-09-28T13:29:23.180Z,805
2016-09-28T13:30:23.156Z,805
2016-09-28T13:31:23.154Z,800
2016-09-28T13:32:23.132Z,800
2016-09-28T13:33:23.123Z,795
2016-09-28T13:34:23.103Z,785
2016-09-28T13:35:23.099Z,780
2016-09-28T13:36:23.391Z,765
2016-09-28T13:37:23.070Z,755
2016-09-28T13:38:23.044Z,745
2016-09-28T13:39:23.043Z,725
2016-09-28T13:40:23.016Z,710
2016-09-28T13:41:22.999Z,695
2016-09-28T13:42:22.993Z,690
2016-09-28T13:43:22.969Z,685
2016-09-28T13:44:22.957Z,680
2016-09-28T13:45:22.946Z,665
2016-09-28T13:46:22.927Z,650
2016-09-28T13:47:22.912Z,635
2016-09-28T13:48:22.907Z,620
2016-09-28T13:49:23.230Z,595
2016-09-28T13:50:22.862Z,570
2016-09-28T13:51:22.860Z,540
2016-09-28T13:52:22.934Z,505
2016-09-28T13:53:22.916Z,470
2016-09-28T13:54:22.815Z,440
2016-09-28T13:55:22.797Z,445
2016-09-28T13:56:22.805Z,420
2016-09-28T13:57:22.761Z,405
2016-09-28T13:58:22.757Z,395
2016-09-28T13:59:22.820Z,400
2016-09-28T14:00:22.723Z,435
2016-09-28T14:01:22.708Z,455
2016-09-28T14:02:22.697Z,475
2016-09-28T14:03:22.680Z,505
2016-09-28T14:04:22.652Z,505
2016-09-28T14:05:22.643Z,510
2016-09-28T14:06:22.622Z,515
2016-09-28T14:07:22.599Z,515
2016-09-28T14:08:22.601Z,505